Time;durP1;ratioP1;P1;durP2;ratioP2;P2;SDS_P1;SDS_P2;PMS_P1;PMS_P2;Temp;Humidity;BMP_temperature;BMP_pressure;BME280_temperature;BME280_humidity;BME280_pressure;Samples;Min_cycle;Max_cycle;Signal;HPM_P1;HPM_P2
2023/10/29 00:01:54;;;;;;;14.65;9.40;;;12.10;78.50;;;;;;4919880;29;20034;-73
2023/10/29 00:04:20;;;;;;;14.00;8.70;;;12.10;78.40;;;;;;4919318;29;20086;-72
2023/10/29 00:06:47;;;;;;;13.35;9.27;;;12.00;78.30;;;;;;4919598;29;20430;-72
2023/10/29 00:09:13;;;;;;;14.05;8.82;;;12.00;78.30;;;;;;4918259;29;20359;-72
2023/10/29 00:11:39;;;;;;;16.13;9.77;;;12.00;78.20;;;;;;4919265;29;20044;-72
2023/10/29 00:14:06;;;;;;;17.23;9.90;;;11.90;78.30;;;;;;4902560;29;20028;-72
2023/10/29 00:16:32;;;;;;;15.65;9.82;;;11.90;78.40;;;;;;4919113;29;20030;-72
2023/10/29 00:18:58;;;;;;;15.15;9.30;;;11.90;78.40;;;;;;4919640;29;20028;-72
2023/10/29 00:21:24;;;;;;;15.30;9.20;;;11.90;78.40;;;;;;4919089;29;20331;-72
2023/10/29 00:23:49;;;;;;;14.95;8.43;;;11.90;78.30;;;;;;4919690;29;20068;-72
2023/10/29 00:26:15;;;;;;;12.77;8.20;;;11.90;78.40;;;;;;4919130;29;20067;-73
2023/10/29 00:28:41;;;;;;;14.40;9.13;;;11.80;78.40;;;;;;4919294;29;20075;-72
2023/10/29 00:31:07;;;;;;;13.70;8.65;;;11.80;78.50;;;;;;4919629;29;20433;-72
2023/10/29 00:33:33;;;;;;;15.30;9.02;;;11.90;78.60;;;;;;4919001;29;20036;-72
2023/10/29 00:35:59;;;;;;;13.65;8.75;;;11.90;78.80;;;;;;4919601;29;20027;-72
2023/10/29 00:38:25;;;;;;;16.63;8.88;;;11.90;78.70;;;;;;4918217;29;20567;-72
2023/10/29 00:40:51;;;;;;;16.70;8.75;;;11.90;78.70;;;;;;4919517;29;20028;-72
2023/10/29 00:43:17;;;;;;;15.52;8.70;;;11.90;78.70;;;;;;4918976;29;20036;-71
2023/10/29 00:45:53;;;;;;;14.50;8.82;;;11.80;79.00;;;;;;4919418;29;20044;-72
2023/10/29 00:48:21;;;;;;;15.55;9.07;;;11.80;78.80;;;;;;4919708;29;20040;-72
2023/10/29 00:50:47;;;;;;;12.73;7.93;;;11.80;78.90;;;;;;4918897;29;20040;-72
2023/10/29 00:53:13;;;;;;;14.43;7.95;;;11.80;78.90;;;;;;4919308;29;20032;-72
2023/10/29 00:55:40;;;;;;;11.63;7.57;;;11.80;79.00;;;;;;4918872;29;20068;-72
2023/10/29 00:58:06;;;;;;;12.52;7.70;;;11.80;78.90;;;;;;4918827;29;20032;-72
2023/10/29 01:00:32;;;;;;;13.00;8.50;;;11.80;78.90;;;;;;4919321;29;20079;-72
2023/10/29 01:02:58;;;;;;;14.45;8.10;;;11.80;79.10;;;;;;4917830;29;20045;-72
2023/10/29 01:05:24;;;;;;;12.85;7.78;;;11.80;79.10;;;;;;4918826;29;20034;-72
2023/10/29 01:07:51;;;;;;;12.05;7.68;;;11.80;79.00;;;;;;4918652;29;20368;-72
2023/10/29 01:10:17;;;;;;;13.57;7.50;;;11.80;79.00;;;;;;4918972;29;20036;-72
2023/10/29 01:12:45;;;;;;;12.85;8.15;;;11.80;78.80;;;;;;4921185;29;20092;-72
2023/10/29 01:15:11;;;;;;;12.20;7.22;;;11.80;78.80;;;;;;4922220;29;20028;-72
2023/10/29 01:17:38;;;;;;;11.18;7.10;;;11.80;78.70;;;;;;4922483;29;20046;-72
2023/10/29 01:20:04;;;;;;;14.32;8.00;;;11.90;78.70;;;;;;4922351;29;20063;-72
2023/10/29 01:22:31;;;;;;;14.00;7.57;;;11.80;78.80;;;;;;4922108;29;20529;-72
2023/10/29 01:24:58;;;;;;;12.55;7.82;;;11.80;78.80;;;;;;4922091;29;20032;-72
2023/10/29 01:27:24;;;;;;;13.27;7.00;;;11.80;78.80;;;;;;4922767;29;20051;-72
2023/10/29 01:29:49;;;;;;;11.70;7.22;;;11.80;78.80;;;;;;4922034;29;20032;-72
2023/10/29 01:32:15;;;;;;;11.85;6.90;;;11.80;78.80;;;;;;4920955;29;20036;-72
2023/10/29 01:34:42;;;;;;;12.25;6.93;;;11.70;78.80;;;;;;4922193;29;20027;-72
2023/10/29 01:37:08;;;;;;;10.70;6.80;;;11.70;78.80;;;;;;4922105;29;20040;-72
2023/10/29 01:39:36;;;;;;;11.15;6.63;;;11.70;78.90;;;;;;4921707;29;20353;-72
2023/10/29 01:42:02;;;;;;;10.35;6.30;;;11.70;79.00;;;;;;4921718;29;20039;-72
2023/10/29 01:44:28;;;;;;;10.07;6.70;;;11.70;79.20;;;;;;4922002;29;20016;-72
2023/10/29 01:46:54;;;;;;;10.65;7.00;;;11.70;79.30;;;;;;4921693;29;20024;-72
2023/10/29 01:49:20;;;;;;;10.95;6.65;;;11.70;79.50;;;;;;4921651;29;20188;-72
2023/10/29 01:51:46;;;;;;;11.35;7.05;;;11.80;79.60;;;;;;4920584;29;20080;-72
2023/10/29 01:54:12;;;;;;;12.80;6.85;;;11.80;79.60;;;;;;4921849;29;20020;-72
2023/10/29 01:56:38;;;;;;;12.20;6.72;;;11.80;79.70;;;;;;4921557;29;20438;-73
2023/10/29 01:59:04;;;;;;;11.43;6.72;;;11.90;79.70;;;;;;4921915;29;20032;-72
2023/10/29 02:01:30;;;;;;;9.95;6.10;;;11.90;79.80;;;;;;4921667;29;20521;-72
2023/10/29 02:03:56;;;;;;;13.70;6.55;;;11.90;79.80;;;;;;4921926;29;20438;-71
2023/10/29 02:06:22;;;;;;;11.45;6.65;;;11.90;79.70;;;;;;4921611;29;20070;-73
2023/10/29 02:08:48;;;;;;;10.15;6.28;;;12.00;79.60;;;;;;4921247;29;20024;-72
2023/10/29 02:11:14;;;;;;;9.65;6.10;;;12.00;79.60;;;;;;4921735;29;20056;-72
2023/10/29 02:13:40;;;;;;;10.85;6.30;;;11.90;79.50;;;;;;4921675;29;20389;-72
2023/10/29 02:16:07;;;;;;;10.68;6.15;;;11.90;79.40;;;;;;4921211;29;20420;-72
2023/10/29 02:18:33;;;;;;;9.98;6.18;;;12.00;79.40;;;;;;4921035;29;20450;-72
2023/10/29 02:20:59;;;;;;;9.93;5.50;;;11.90;79.20;;;;;;4921143;29;20047;-72
2023/10/29 02:23:27;;;;;;;10.25;5.85;;;12.00;79.10;;;;;;4920898;29;20028;-72
2023/10/29 02:25:53;;;;;;;9.85;5.35;;;11.90;79.20;;;;;;4921268;29;20168;-72
2023/10/29 02:28:19;;;;;;;11.02;5.13;;;12.00;79.20;;;;;;4919886;29;20148;-73
2023/10/29 02:30:45;;;;;;;9.77;4.95;;;12.00;79.20;;;;;;4920970;29;20028;-72
2023/10/29 02:33:11;;;;;;;8.13;5.13;;;12.00;79.00;;;;;;4920741;29;20024;-72
2023/10/29 02:35:37;;;;;;;7.97;4.90;;;11.90;79.10;;;;;;4920864;29;20032;-74
2023/10/29 02:38:03;;;;;;;7.05;4.60;;;12.00;79.10;;;;;;4920702;29;20099;-72
2023/10/29 02:40:29;;;;;;;6.68;4.22;;;11.90;79.10;;;;;;4919700;29;20492;-72
2023/10/29 02:42:55;;;;;;;8.45;4.32;;;12.00;79.10;;;;;;4920949;29;20033;-73
2023/10/29 02:45:21;;;;;;;6.38;4.00;;;12.00;79.20;;;;;;4919715;29;20032;-73
2023/10/29 02:47:47;;;;;;;7.72;4.97;;;12.00;79.20;;;;;;4920837;29;20020;-72
2023/10/29 02:50:13;;;;;;;7.68;4.63;;;12.00;79.10;;;;;;4921061;29;20056;-72
2023/10/29 02:52:39;;;;;;;7.93;4.35;;;12.00;79.00;;;;;;4920689;29;20079;-72
2023/10/29 02:55:06;;;;;;;7.60;3.97;;;12.10;79.00;;;;;;4921022;29;20028;-73
2023/10/29 02:57:33;;;;;;;7.68;3.78;;;12.10;79.00;;;;;;4920376;29;20394;-72
2023/10/29 02:59:59;;;;;;;6.97;3.83;;;12.20;79.00;;;;;;4920325;29;20027;-73
2023/10/29 03:02:25;;;;;;;5.85;4.03;;;12.20;79.00;;;;;;4920387;29;20024;-74
2023/10/29 03:04:51;;;;;;;7.60;4.47;;;12.10;78.90;;;;;;4920849;29;20107;-74
2023/10/29 03:07:17;;;;;;;8.13;4.05;;;12.10;78.90;;;;;;4920557;29;20035;-74
2023/10/29 03:09:43;;;;;;;6.57;3.80;;;12.10;78.80;;;;;;4920227;29;20025;-73
2023/10/29 03:12:09;;;;;;;7.00;3.70;;;12.10;78.70;;;;;;4920671;29;20067;-73
2023/10/29 03:14:35;;;;;;;6.72;3.53;;;12.10;78.80;;;;;;4920147;29;20061;-73
2023/10/29 03:17:01;;;;;;;5.38;3.80;;;12.00;78.70;;;;;;4920072;29;20071;-73
2023/10/29 03:19:27;;;;;;;7.32;3.92;;;12.00;78.60;;;;;;4920279;29;20039;-72
2023/10/29 03:21:53;;;;;;;7.35;4.10;;;11.90;78.60;;;;;;4919972;29;20024;-73
2023/10/29 03:24:19;;;;;;;4.95;3.63;;;11.90;78.70;;;;;;4919963;29;20028;-73
2023/10/29 03:26:45;;;;;;;7.68;3.13;;;11.90;78.80;;;;;;4919952;29;20124;-74
2023/10/29 03:29:11;;;;;;;7.53;3.60;;;11.90;78.90;;;;;;4918830;29;20047;-73
2023/10/29 03:31:38;;;;;;;6.10;3.42;;;11.90;78.90;;;;;;4919856;29;20020;-74
2023/10/29 03:34:04;;;;;;;8.13;3.22;;;11.90;78.90;;;;;;4919319;29;20040;-74
2023/10/29 03:36:30;;;;;;;7.30;4.10;;;11.80;78.80;;;;;;4919648;29;20036;-74
2023/10/29 03:38:56;;;;;;;9.02;3.80;;;11.80;78.90;;;;;;4919633;29;20044;-74
2023/10/29 03:41:23;;;;;;;7.45;3.35;;;11.90;79.00;;;;;;4919639;29;20027;-74
2023/10/29 03:43:49;;;;;;;5.07;3.22;;;11.90;78.90;;;;;;4919685;29;20103;-73
2023/10/29 03:46:17;;;;;;;7.13;3.60;;;11.90;78.90;;;;;;4919788;29;20067;-74
2023/10/29 03:48:44;;;;;;;7.53;3.30;;;11.90;79.00;;;;;;4920060;29;20032;-73
2023/10/29 03:51:12;;;;;;;9.32;3.15;;;11.90;79.00;;;;;;4919498;29;20476;-74
2023/10/29 03:53:38;;;;;;;4.78;3.15;;;11.90;78.90;;;;;;4919419;29;20063;-74
2023/10/29 03:56:04;;;;;;;5.68;3.17;;;11.90;78.90;;;;;;4919436;29;20076;-73
2023/10/29 03:58:30;;;;;;;9.10;3.15;;;11.90;78.80;;;;;;4919376;29;20028;-73
2023/10/29 04:00:57;;;;;;;5.15;3.25;;;11.90;78.90;;;;;;4919653;29;20111;-73
2023/10/29 04:03:23;;;;;;;4.22;2.92;;;11.90;79.10;;;;;;4919331;29;20107;-73
2023/10/29 04:05:48;;;;;;;5.53;3.10;;;11.90;79.00;;;;;;4919602;29;20119;-73
2023/10/29 04:08:16;;;;;;;4.45;3.00;;;11.90;78.90;;;;;;4918306;29;20084;-73
2023/10/29 04:10:42;;;;;;;6.70;3.30;;;11.90;78.80;;;;;;4919220;29;20028;-73
2023/10/29 04:13:08;;;;;;;6.85;3.13;;;11.90;78.70;;;;;;4918281;29;20051;-73
2023/10/29 04:15:34;;;;;;;5.28;3.53;;;11.90;78.80;;;;;;4919251;29;20449;-73
2023/10/29 04:18:00;;;;;;;7.68;3.70;;;11.90;78.80;;;;;;4919400;29;20543;-73
2023/10/29 04:20:27;;;;;;;5.00;3.40;;;11.90;78.80;;;;;;4919706;29;20442;-73
2023/10/29 04:22:53;;;;;;;7.70;3.80;;;11.90;78.90;;;;;;4919413;29;20036;-73
2023/10/29 04:25:19;;;;;;;6.30;3.78;;;11.80;79.10;;;;;;4919178;29;20032;-73
2023/10/29 04:27:46;;;;;;;6.95;4.00;;;11.90;79.10;;;;;;4919341;29;20035;-73
2023/10/29 04:30:12;;;;;;;6.75;3.63;;;11.90;79.20;;;;;;4919034;29;20481;-73
2023/10/29 04:32:38;;;;;;;7.72;4.10;;;11.90;79.20;;;;;;4919498;29;20136;-73
2023/10/29 04:35:04;;;;;;;7.85;4.20;;;11.90;79.30;;;;;;4919036;29;20438;-73
2023/10/29 04:37:30;;;;;;;7.32;4.40;;;11.90;79.30;;;;;;4919580;29;20036;-73
2023/10/29 04:39:56;;;;;;;6.53;4.05;;;12.00;79.30;;;;;;4918836;29;20056;-73
2023/10/29 04:42:22;;;;;;;7.05;4.43;;;12.00;79.40;;;;;;4919290;29;20042;-64
2023/10/29 04:44:48;;;;;;;6.65;4.32;;;12.00;79.40;;;;;;4918959;29;20115;-64
2023/10/29 04:47:14;;;;;;;7.95;4.30;;;12.10;79.50;;;;;;4921164;29;20070;-63
2023/10/29 04:49:40;;;;;;;10.15;4.85;;;12.00;79.60;;;;;;4922726;29;20024;-63
2023/10/29 04:52:08;;;;;;;7.85;4.30;;;12.10;79.60;;;;;;4922617;29;20024;-63
2023/10/29 04:54:34;;;;;;;10.07;4.70;;;12.10;79.70;;;;;;4922624;29;20028;-73
2023/10/29 04:57:03;;;;;;;7.93;4.35;;;12.10;79.80;;;;;;4922878;29;20035;-73
2023/10/29 04:59:32;;;;;;;9.63;4.10;;;12.10;79.90;;;;;;4922547;29;20103;-73
2023/10/29 05:02:00;;;;;;;5.70;3.60;;;12.10;79.90;;;;;;4922487;29;20025;-73
2023/10/29 05:04:26;;;;;;;5.78;3.70;;;12.20;80.00;;;;;;4922649;29;20032;-73
2023/10/29 05:06:52;;;;;;;5.70;3.78;;;12.20;79.90;;;;;;4922962;29;20035;-73
2023/10/29 05:09:18;;;;;;;6.00;3.47;;;12.20;80.00;;;;;;4922291;29;20036;-73
2023/10/29 05:11:44;;;;;;;8.35;3.97;;;12.20;80.00;;;;;;4922638;29;20103;-73
2023/10/29 05:14:10;;;;;;;5.40;3.78;;;12.20;80.00;;;;;;4922760;29;20050;-73
2023/10/29 05:16:36;;;;;;;7.20;3.88;;;12.20;80.10;;;;;;4922823;29;20040;-73
2023/10/29 05:19:03;;;;;;;6.43;3.63;;;12.20;80.20;;;;;;4922188;29;20039;-73
2023/10/29 05:21:29;;;;;;;8.18;3.80;;;12.30;80.20;;;;;;4922186;29;20040;-64
2023/10/29 05:23:55;;;;;;;6.38;3.53;;;12.30;80.10;;;;;;4921227;29;20043;-64
2023/10/29 05:26:21;;;;;;;7.90;3.42;;;12.40;80.20;;;;;;4922386;29;20032;-63
2023/10/29 05:28:47;;;;;;;7.45;3.70;;;12.40;80.20;;;;;;4922609;29;20458;-64
2023/10/29 05:31:12;;;;;;;7.15;3.85;;;12.40;80.20;;;;;;4922042;29;20358;-64
2023/10/29 05:33:40;;;;;;;5.28;3.58;;;12.40;80.20;;;;;;4922414;29;20079;-63
2023/10/29 05:36:07;;;;;;;6.47;3.55;;;12.40;80.30;;;;;;4921979;29;20032;-63
2023/10/29 05:38:35;;;;;;;5.85;3.72;;;12.40;80.30;;;;;;4921677;29;20123;-63
2023/10/29 05:41:01;;;;;;;6.28;3.50;;;12.50;80.30;;;;;;4922156;29;20035;-63
2023/10/29 05:43:27;;;;;;;6.57;3.80;;;12.50;80.20;;;;;;4921812;29;20032;-63
2023/10/29 05:45:53;;;;;;;4.88;3.42;;;12.50;80.20;;;;;;4921815;29;20040;-64
2023/10/29 05:48:19;;;;;;;9.50;3.60;;;12.50;80.40;;;;;;4921716;29;20493;-63
2023/10/29 05:50:44;;;;;;;7.78;3.33;;;12.50;80.40;;;;;;4921653;29;20030;-64
2023/10/29 05:53:10;;;;;;;5.85;3.20;;;12.60;80.40;;;;;;4922058;29;20112;-63
2023/10/29 05:55:41;;;;;;;6.18;3.25;;;12.60;80.40;;;;;;4922038;29;20032;-63
2023/10/29 05:58:10;;;;;;;6.25;3.60;;;12.60;80.40;;;;;;4920969;29;20028;-64
2023/10/29 06:00:39;;;;;;;6.03;3.50;;;12.60;80.40;;;;;;4921456;29;20020;-63
2023/10/29 06:03:05;;;;;;;9.40;4.00;;;12.70;80.40;;;;;;4921763;29;20028;-64
2023/10/29 06:05:31;;;;;;;9.35;5.10;;;12.70;80.50;;;;;;4921445;29;20031;-63
2023/10/29 06:08:03;;;;;;;10.07;4.82;;;12.70;80.50;;;;;;4921592;29;20055;-63
2023/10/29 06:10:34;;;;;;;7.30;4.80;;;12.70;80.70;;;;;;4921309;29;20035;-64
2023/10/29 06:13:00;;;;;;;9.45;3.75;;;12.70;80.80;;;;;;4921126;29;20472;-63
2023/10/29 06:15:26;;;;;;;5.70;4.10;;;12.70;80.80;;;;;;4921543;29;20025;-63
2023/10/29 06:17:55;;;;;;;7.72;3.78;;;12.70;80.70;;;;;;4921665;29;20397;-64
2023/10/29 06:20:22;;;;;;;7.18;4.05;;;12.70;80.50;;;;;;4920199;29;20097;-64
2023/10/29 06:22:48;;;;;;;10.45;4.55;;;12.80;80.60;;;;;;4921090;29;20099;-64
2023/10/29 06:25:15;;;;;;;10.20;3.97;;;12.80;80.50;;;;;;4921300;29;20052;-63
2023/10/29 06:27:41;;;;;;;8.00;3.90;;;12.80;80.60;;;;;;4921032;29;20373;-63
2023/10/29 06:30:08;;;;;;;6.28;3.60;;;12.90;80.50;;;;;;4921526;29;20103;-63
2023/10/29 06:32:33;;;;;;;5.20;3.60;;;12.90;80.60;;;;;;4921059;29;20043;-64
2023/10/29 06:34:59;;;;;;;5.13;3.22;;;12.80;80.60;;;;;;4920887;29;20024;-64
2023/10/29 06:37:26;;;;;;;4.30;3.38;;;12.90;80.50;;;;;;4921072;29;20071;-63
2023/10/29 06:39:52;;;;;;;7.60;3.70;;;12.90;80.60;;;;;;4920560;29;20050;-63
2023/10/29 06:42:18;;;;;;;6.78;3.97;;;12.90;80.60;;;;;;4920669;29;20040;-64
2023/10/29 06:44:43;;;;;;;8.07;4.38;;;12.90;80.60;;;;;;4919726;29;20039;-64
2023/10/29 06:47:09;;;;;;;6.80;3.97;;;13.00;80.70;;;;;;4921204;29;20044;-64
2023/10/29 06:49:35;;;;;;;11.50;4.15;;;13.00;80.40;;;;;;4920793;29;20085;-63
2023/10/29 06:52:01;;;;;;;7.45;4.50;;;13.00;80.70;;;;;;4920524;29;20469;-63
2023/10/29 06:54:27;;;;;;;8.07;4.57;;;13.00;80.70;;;;;;4920811;29;20029;-63
2023/10/29 06:56:53;;;;;;;8.40;4.72;;;13.00;80.60;;;;;;4920753;29;20028;-63
2023/10/29 06:59:19;;;;;;;8.77;5.10;;;13.00;80.70;;;;;;4920489;29;20106;-63
2023/10/29 07:01:47;;;;;;;9.30;5.10;;;13.00;80.60;;;;;;4920925;29;20025;-64
2023/10/29 07:04:13;;;;;;;12.95;6.07;;;13.00;80.60;;;;;;4920606;29;20028;-64
2023/10/29 07:06:40;;;;;;;8.60;5.35;;;13.10;80.80;;;;;;4920569;29;20081;-64
2023/10/29 07:09:06;;;;;;;8.88;5.10;;;13.10;80.80;;;;;;4919987;29;20024;-63
2023/10/29 07:11:32;;;;;;;10.35;4.70;;;13.10;80.90;;;;;;4920128;29;20083;-64
2023/10/29 07:13:58;;;;;;;6.45;3.47;;;13.20;80.90;;;;;;4919133;29;20028;-64
2023/10/29 07:16:23;;;;;;;6.70;3.58;;;13.20;80.60;;;;;;4920340;29;20031;-64
2023/10/29 07:18:50;;;;;;;6.45;3.42;;;13.40;80.70;;;;;;4920102;29;20024;-64
2023/10/29 07:21:16;;;;;;;7.43;3.30;;;13.40;80.70;;;;;;4919931;29;20562;-64
2023/10/29 07:23:42;;;;;;;6.25;3.58;;;13.50;80.70;;;;;;4919990;29;20047;-64
2023/10/29 07:26:08;;;;;;;5.15;3.15;;;13.50;80.60;;;;;;4919873;29;20028;-64
2023/10/29 07:28:34;;;;;;;6.63;3.03;;;13.60;80.50;;;;;;4918918;29;20020;-64
2023/10/29 07:31:02;;;;;;;5.82;3.08;;;13.70;80.60;;;;;;4918801;29;20398;-64
2023/10/29 07:33:28;;;;;;;5.00;3.08;;;13.70;80.50;;;;;;4918714;29;20063;-64
2023/10/29 07:35:54;;;;;;;7.38;3.30;;;13.80;80.30;;;;;;4919740;29;20070;-63
2023/10/29 07:38:20;;;;;;;5.70;2.90;;;13.90;80.30;;;;;;4919648;29;20017;-64
2023/10/29 07:40:46;;;;;;;6.82;3.03;;;13.90;80.10;;;;;;4919966;29;20040;-64
2023/10/29 07:43:12;;;;;;;7.00;2.92;;;14.00;79.90;;;;;;4919594;29;20084;-63
2023/10/29 07:45:38;;;;;;;6.82;3.33;;;14.00;79.80;;;;;;4920104;29;20032;-64
2023/10/29 07:48:04;;;;;;;7.53;3.42;;;14.00;79.70;;;;;;4918644;29;20043;-64
2023/10/29 07:50:31;;;;;;;6.22;3.47;;;14.10;79.70;;;;;;4918565;29;20032;-64
2023/10/29 07:52:57;;;;;;;5.32;2.78;;;14.20;79.60;;;;;;4919662;29;20043;-64
2023/10/29 07:55:23;;;;;;;4.70;3.10;;;14.20;79.40;;;;;;4919521;29;20024;-64
2023/10/29 07:57:49;;;;;;;6.50;3.17;;;14.20;79.30;;;;;;4919873;29;20025;-64
2023/10/29 08:00:19;;;;;;;4.13;2.90;;;14.30;79.20;;;;;;4918426;29;20020;-64
2023/10/29 08:02:46;;;;;;;6.15;2.78;;;14.40;79.10;;;;;;4919433;29;20027;-64
2023/10/29 08:05:12;;;;;;;5.97;3.15;;;14.40;79.00;;;;;;4919261;29;20032;-64
2023/10/29 08:07:39;;;;;;;4.93;2.90;;;14.40;78.90;;;;;;4919293;29;20152;-64
2023/10/29 08:10:05;;;;;;;7.68;3.35;;;14.40;78.90;;;;;;4919200;29;20032;-64
2023/10/29 08:12:31;;;;;;;6.20;3.63;;;14.40;79.00;;;;;;4919413;29;20043;-64
2023/10/29 08:14:58;;;;;;;6.63;3.00;;;14.50;79.10;;;;;;4919471;29;20107;-64
2023/10/29 08:17:24;;;;;;;5.28;3.00;;;14.60;79.10;;;;;;4919201;29;20024;-64
2023/10/29 08:19:52;;;;;;;3.85;2.85;;;14.60;79.00;;;;;;4919659;29;20426;-65
2023/10/29 08:22:20;;;;;;;6.15;3.20;;;14.60;78.90;;;;;;4918980;29;20081;-64
2023/10/29 08:24:46;;;;;;;4.07;2.90;;;14.60;79.00;;;;;;4919104;29;20059;-64
2023/10/29 08:27:12;;;;;;;9.60;5.80;;;14.70;79.00;;;;;;4919566;29;20024;-64
2023/10/29 08:29:39;;;;;;;7.05;4.30;;;14.60;78.90;;;;;;4919007;29;20039;-65
2023/10/29 08:32:05;;;;;;;8.32;4.05;;;14.60;79.10;;;;;;4919170;29;20366;-64
2023/10/29 08:34:36;;;;;;;6.47;3.53;;;14.60;79.20;;;;;;4919480;29;20430;-65
2023/10/29 08:37:02;;;;;;;7.93;4.10;;;14.70;79.40;;;;;;5304374;23;20055;-68
2023/10/29 08:39:29;;;;;;;5.57;3.78;;;14.60;79.50;;;;;;4917939;29;20024;-69
2023/10/29 08:41:56;;;;;;;5.43;3.28;;;14.60;79.40;;;;;;4919141;29;20100;-71
2023/10/29 08:44:21;;;;;;;6.50;3.47;;;14.60;79.40;;;;;;4919131;29;20116;-69
2023/10/29 08:46:47;;;;;;;8.65;3.60;;;14.60;79.60;;;;;;4913583;29;20112;-70
2023/10/29 08:49:13;;;;;;;5.95;3.70;;;14.60;79.90;;;;;;4900242;29;20036;-71
2023/10/29 08:51:40;;;;;;;6.72;4.32;;;14.70;79.80;;;;;;4900352;29;20032;-68
2023/10/29 08:54:06;;;;;;;9.25;5.10;;;14.60;80.10;;;;;;4899917;29;20104;-69
2023/10/29 08:56:36;;;;;;;8.73;5.50;;;14.70;80.30;;;;;;4899749;29;20032;-67
2023/10/29 08:59:04;;;;;;;10.05;6.00;;;14.70;80.10;;;;;;4899838;29;20453;-68
2023/10/29 09:01:31;;;;;;;7.45;5.30;;;14.70;80.20;;;;;;4899690;29;20033;-65
2023/10/29 09:03:57;;;;;;;10.10;5.38;;;14.70;80.40;;;;;;4900072;29;20021;-67
2023/10/29 09:06:24;;;;;;;9.13;5.43;;;14.70;80.40;;;;;;4900209;29;20029;-68
2023/10/29 09:08:51;;;;;;;8.40;4.40;;;14.80;80.50;;;;;;4900006;29;20041;-67
2023/10/29 09:11:17;;;;;;;7.82;4.80;;;14.80;80.80;;;;;;4899696;29;20060;-65
2023/10/29 09:13:43;;;;;;;9.43;4.88;;;14.80;80.90;;;;;;4899878;29;20033;-64
2023/10/29 09:16:11;;;;;;;9.05;5.32;;;14.90;81.00;;;;;;4899186;29;20096;-68
2023/10/29 09:18:37;;;;;;;11.00;5.20;;;14.90;80.70;;;;;;4899584;29;20031;-69
2023/10/29 09:21:04;;;;;;;9.35;5.05;;;15.00;80.60;;;;;;4899693;29;20362;-68
2023/10/29 09:23:32;;;;;;;10.05;4.80;;;15.00;80.60;;;;;;4899611;29;20060;-68
2023/10/29 09:25:59;;;;;;;8.88;5.25;;;15.00;80.70;;;;;;4899807;29;20052;-68
2023/10/29 09:28:26;;;;;;;8.52;5.00;;;15.10;80.60;;;;;;4899786;29;20032;-68
2023/10/29 09:30:52;;;;;;;9.27;4.93;;;15.10;80.60;;;;;;4899789;29;20056;-68
2023/10/29 09:33:19;;;;;;;10.50;5.10;;;15.10;80.60;;;;;;4901578;29;20040;-69
2023/10/29 09:35:45;;;;;;;11.18;5.20;;;15.20;80.40;;;;;;4901943;29;20128;-69
2023/10/29 09:38:11;;;;;;;10.27;5.07;;;15.20;80.40;;;;;;4902685;29;20045;-68
2023/10/29 09:40:37;;;;;;;10.40;5.38;;;15.20;80.40;;;;;;4902817;29;20092;-68
2023/10/29 09:43:05;;;;;;;12.48;7.25;;;15.30;80.40;;;;;;4902818;29;20034;-69
2023/10/29 09:45:37;;;;;;;10.48;6.32;;;15.30;80.30;;;;;;4903043;29;20032;-68
2023/10/29 09:48:07;;;;;;;8.77;5.32;;;15.30;80.30;;;;;;4903270;29;20047;-68
2023/10/29 09:50:34;;;;;;;9.15;5.20;;;15.30;80.30;;;;;;4902954;29;20036;-68
2023/10/29 09:53:03;;;;;;;9.27;5.13;;;15.30;80.40;;;;;;4902574;29;20024;-68
2023/10/29 09:55:35;;;;;;;10.15;5.07;;;15.40;80.20;;;;;;4901614;29;20044;-68
2023/10/29 09:58:03;;;;;;;8.50;4.80;;;15.40;80.30;;;;;;4902578;29;20035;-68
2023/10/29 10:00:37;;;;;;;9.35;4.82;;;15.40;80.40;;;;;;4903216;29;20039;-68
2023/10/29 10:03:03;;;;;;;9.35;5.70;;;15.40;80.20;;;;;;4901555;29;20358;-68
2023/10/29 10:05:29;;;;;;;12.15;4.88;;;15.40;80.20;;;;;;4902472;29;20370;-68
2023/10/29 10:07:56;;;;;;;8.73;5.00;;;15.40;80.20;;;;;;4902869;29;20341;-68
2023/10/29 10:10:41;;;;;;;7.47;4.95;;;15.40;80.10;;;;;;4885851;29;20474;-68
2023/10/29 10:13:08;;;;;;;9.15;4.93;;;15.40;80.00;;;;;;4902601;29;20040;-68
2023/10/29 10:15:35;;;;;;;10.13;5.63;;;15.40;80.30;;;;;;4902201;29;20332;-68
2023/10/29 10:18:06;;;;;;;8.82;4.90;;;15.40;80.20;;;;;;4902174;29;20024;-68
2023/10/29 10:20:36;;;;;;;9.40;5.20;;;15.40;80.30;;;;;;4902498;29;20032;-68
2023/10/29 10:23:11;;;;;;;7.50;5.13;;;15.40;80.70;;;;;;4902083;29;20438;-68
2023/10/29 10:25:37;;;;;;;10.07;5.47;;;15.40;80.40;;;;;;4902652;29;20032;-68
2023/10/29 10:28:05;;;;;;;8.52;4.95;;;15.30;80.70;;;;;;4902011;29;20032;-69
2023/10/29 10:30:35;;;;;;;8.45;4.85;;;15.30;80.50;;;;;;4902082;29;20024;-70
2023/10/29 10:33:15;;;;;;;10.10;4.80;;;15.30;80.70;;;;;;4900776;29;20029;-69
2023/10/29 10:35:51;;;;;;;9.73;4.70;;;15.30;80.50;;;;;;4901552;29;20165;-69
2023/10/29 10:38:22;;;;;;;9.02;4.97;;;15.30;80.60;;;;;;4901294;29;20087;-69
2023/10/29 10:40:58;;;;;;;9.15;5.13;;;15.30;80.80;;;;;;4900575;29;20462;-71
2023/10/29 10:43:24;;;;;;;7.93;4.80;;;15.30;80.90;;;;;;4901273;29;20458;-69
2023/10/29 10:45:51;;;;;;;8.05;4.43;;;15.40;80.90;;;;;;4900179;29;20080;-69
2023/10/29 10:48:18;;;;;;;8.65;4.88;;;15.40;80.80;;;;;;4901436;29;20059;-69
2023/10/29 10:50:44;;;;;;;6.50;4.40;;;15.40;80.80;;;;;;4901384;29;20391;-69
2023/10/29 10:53:10;;;;;;;7.65;4.53;;;15.40;80.90;;;;;;4900217;29;20036;-69
2023/10/29 10:55:37;;;;;;;9.45;4.45;;;15.50;80.80;;;;;;4901118;29;20025;-69
2023/10/29 10:58:04;;;;;;;8.60;4.85;;;15.50;80.90;;;;;;4901020;29;20052;-68
2023/10/29 11:00:33;;;;;;;9.60;5.20;;;15.50;80.80;;;;;;4900860;29;20469;-69
2023/10/29 11:03:00;;;;;;;9.23;4.88;;;15.60;80.80;;;;;;4901193;29;20060;-71
2023/10/29 11:05:30;;;;;;;7.60;4.70;;;15.60;80.90;;;;;;4900946;29;20032;-72
2023/10/29 11:07:58;;;;;;;6.50;4.68;;;15.60;80.90;;;;;;4900743;29;20036;-69
2023/10/29 11:10:27;;;;;;;8.13;4.88;;;15.60;80.90;;;;;;4900887;29;20048;-73
2023/10/29 11:12:54;;;;;;;9.52;5.40;;;15.70;80.90;;;;;;4900473;29;20077;-69
2023/10/29 11:15:22;;;;;;;7.35;4.10;;;15.70;80.90;;;;;;4899290;29;20354;-71
2023/10/29 11:17:59;;;;;;;9.68;4.57;;;15.70;80.60;;;;;;4899528;29;20033;-71
2023/10/29 11:20:37;;;;;;;7.03;4.00;;;15.70;80.30;;;;;;4900443;29;20387;-70
2023/10/29 11:23:07;;;;;;;6.95;4.30;;;15.70;80.40;;;;;;4900388;29;20047;-70
2023/10/29 11:25:33;;;;;;;7.47;4.35;;;15.70;80.40;;;;;;4900605;29;20131;-69
2023/10/29 11:28:01;;;;;;;9.00;4.50;;;15.70;80.40;;;;;;4900363;29;20028;-68
2023/10/29 11:30:29;;;;;;;8.98;5.30;;;15.70;80.50;;;;;;4900090;29;20036;-69
2023/10/29 11:33:17;;;;;;;9.68;6.20;;;15.70;80.70;;;;;;4899167;29;20032;-63
2023/10/29 11:35:44;;;;;;;10.55;6.03;;;15.80;80.60;;;;;;4899358;29;20111;-64
2023/10/29 11:38:33;;;;;;;10.75;5.03;;;15.80;80.60;;;;;;4899976;29;20455;-68
2023/10/29 11:40:59;;;;;;;9.68;4.80;;;15.80;80.60;;;;;;4900178;29;20064;-69
2023/10/29 11:43:25;;;;;;;8.40;4.63;;;15.80;80.90;;;;;;4899734;29;20036;-65
2023/10/29 11:45:53;;;;;;;8.40;4.85;;;15.80;80.70;;;;;;4898935;29;20420;-66
2023/10/29 11:48:19;;;;;;;6.57;4.60;;;15.90;80.70;;;;;;4899835;29;20040;-70
2023/10/29 11:51:05;;;;;;;10.52;4.65;;;15.90;80.70;;;;;;4899196;29;20374;-63
2023/10/29 11:53:32;;;;;;;8.55;5.25;;;15.90;80.60;;;;;;4899794;29;20036;-67
2023/10/29 11:56:04;;;;;;;7.75;5.13;;;15.90;80.70;;;;;;4898418;29;20025;-62
2023/10/29 11:58:31;;;;;;;9.93;4.80;;;15.90;80.60;;;;;;4899517;29;20089;-65
2023/10/29 12:00:59;;;;;;;9.32;5.78;;;16.00;80.50;;;;;;4899860;29;20020;-67
2023/10/29 12:03:25;;;;;;;12.05;7.00;;;16.00;80.40;;;;;;4899859;29;20036;-66
2023/10/29 12:05:55;;;;;;;11.55;5.60;;;16.00;80.40;;;;;;4898815;29;20075;-64
2023/10/29 12:08:22;;;;;;;9.25;5.90;;;16.00;80.30;;;;;;4899771;29;20036;-68
2023/10/29 12:10:56;;;;;;;9.45;5.53;;;16.00;80.60;;;;;;4899575;29;20085;-66
2023/10/29 12:13:23;;;;;;;11.25;6.65;;;16.00;80.50;;;;;;4899427;29;20391;-63
2023/10/29 12:16:02;;;;;;;9.55;5.93;;;16.00;80.50;;;;;;4898843;29;20344;-68
2023/10/29 12:18:28;;;;;;;12.57;6.35;;;16.00;80.60;;;;;;4898737;29;20052;-66
2023/10/29 12:21:07;;;;;;;11.73;6.47;;;16.00;80.70;;;;;;4898591;29;20365;-68
2023/10/29 12:23:35;;;;;;;10.95;6.55;;;16.00;80.80;;;;;;4899602;29;20065;-67
2023/10/29 12:26:05;;;;;;;8.43;5.57;;;16.00;81.00;;;;;;4898672;29;20052;-66
2023/10/29 12:28:36;;;;;;;10.95;6.80;;;16.00;80.80;;;;;;4899491;29;20083;-69
2023/10/29 12:31:03;;;;;;;10.25;6.47;;;16.00;80.90;;;;;;4899461;29;20036;-67
2023/10/29 12:33:33;;;;;;;11.82;6.30;;;16.10;81.00;;;;;;4899348;29;20048;-64
2023/10/29 12:36:01;;;;;;;10.50;6.22;;;16.10;81.10;;;;;;4899576;29;20103;-70
2023/10/29 12:38:27;;;;;;;8.80;6.00;;;16.10;81.10;;;;;;4898275;29;20075;-66
2023/10/29 12:41:13;;;;;;;10.02;6.53;;;16.10;81.10;;;;;;4898535;29;20035;-68
2023/10/29 12:43:46;;;;;;;10.73;6.13;;;16.10;81.10;;;;;;4899174;29;20033;-67